sensor_id;sensor_type;location;lat;lon;timestamp;P1;durP1;ratioP1;P2;durP2;ratioP2
23718;SDS011;43322;52.230;5.702;2024-01-30T00:00:27;24.65;;;18.17;;
23718;SDS011;43322;52.230;5.702;2024-01-30T00:02:54;22.52;;;17.20;;
23718;SDS011;43322;52.230;5.702;2024-01-30T00:05:22;24.88;;;18.02;;
23718;SDS011;43322;52.230;5.702;2024-01-30T00:07:49;26.48;;;17.80;;
23718;SDS011;43322;52.230;5.702;2024-01-30T00:10:16;22.63;;;17.23;;
23718;SDS011;43322;52.230;5.702;2024-01-30T00:12:43;21.30;;;17.10;;
23718;SDS011;43322;52.230;5.702;2024-01-30T00:15:09;22.60;;;17.25;;
23718;SDS011;43322;52.230;5.702;2024-01-30T00:17:36;24.52;;;17.05;;
23718;SDS011;43322;52.230;5.702;2024-01-30T00:20:03;22.80;;;17.80;;
23718;SDS011;43322;52.230;5.702;2024-01-30T00:22:33;23.05;;;17.17;;
23718;SDS011;43322;52.230;5.702;2024-01-30T00:25:00;20.30;;;17.27;;
23718;SDS011;43322;52.230;5.702;2024-01-30T00:27:27;23.77;;;17.77;;
23718;SDS011;43322;52.230;5.702;2024-01-30T00:29:53;26.90;;;17.33;;
23718;SDS011;43322;52.230;5.702;2024-01-30T00:32:20;22.92;;;17.38;;
23718;SDS011;43322;52.230;5.702;2024-01-30T00:34:48;29.08;;;17.48;;
23718;SDS011;43322;52.230;5.702;2024-01-30T00:37:15;23.20;;;16.15;;
23718;SDS011;43322;52.230;5.702;2024-01-30T00:39:43;22.92;;;16.42;;
23718;SDS011;43322;52.230;5.702;2024-01-30T00:42:10;21.33;;;17.63;;
23718;SDS011;43322;52.230;5.702;2024-01-30T00:44:36;21.45;;;16.25;;
23718;SDS011;43322;52.230;5.702;2024-01-30T00:47:04;22.52;;;16.63;;
23718;SDS011;43322;52.230;5.702;2024-01-30T00:49:31;18.73;;;15.57;;
23718;SDS011;43322;52.230;5.702;2024-01-30T00:51:57;20.58;;;15.48;;
23718;SDS011;43322;52.230;5.702;2024-01-30T00:54:24;19.75;;;15.73;;
23718;SDS011;43322;52.230;5.702;2024-01-30T00:56:52;20.67;;;15.32;;
23718;SDS011;43322;52.230;5.702;2024-01-30T00:59:19;22.98;;;16.48;;
23718;SDS011;43322;52.230;5.702;2024-01-30T01:01:46;22.30;;;16.35;;
23718;SDS011;43322;52.230;5.702;2024-01-30T01:04:12;21.35;;;16.60;;
23718;SDS011;43322;52.230;5.702;2024-01-30T01:06:39;21.25;;;15.88;;
23718;SDS011;43322;52.230;5.702;2024-01-30T01:09:09;20.67;;;16.92;;
23718;SDS011;43322;52.230;5.702;2024-01-30T01:11:36;20.65;;;16.05;;
23718;SDS011;43322;52.230;5.702;2024-01-30T01:14:04;20.45;;;16.58;;
23718;SDS011;43322;52.230;5.702;2024-01-30T01:16:31;20.40;;;16.50;;
23718;SDS011;43322;52.230;5.702;2024-01-30T01:18:59;20.38;;;15.90;;
23718;SDS011;43322;52.230;5.702;2024-01-30T01:21:25;23.52;;;16.52;;
23718;SDS011;43322;52.230;5.702;2024-01-30T01:23:52;26.13;;;16.77;;
23718;SDS011;43322;52.230;5.702;2024-01-30T01:26:19;23.58;;;17.17;;
23718;SDS011;43322;52.230;5.702;2024-01-30T01:28:46;20.33;;;16.05;;
23718;SDS011;43322;52.230;5.702;2024-01-30T01:31:14;20.63;;;16.58;;
23718;SDS011;43322;52.230;5.702;2024-01-30T01:33:42;19.52;;;16.30;;
23718;SDS011;43322;52.230;5.702;2024-01-30T01:36:09;23.15;;;16.95;;
23718;SDS011;43322;52.230;5.702;2024-01-30T01:38:36;20.30;;;16.70;;
23718;SDS011;43322;52.230;5.702;2024-01-30T01:41:03;23.05;;;16.95;;
23718;SDS011;43322;52.230;5.702;2024-01-30T01:43:30;22.77;;;16.50;;
23718;SDS011;43322;52.230;5.702;2024-01-30T01:45:56;23.60;;;16.45;;
23718;SDS011;43322;52.230;5.702;2024-01-30T01:48:25;18.73;;;15.70;;
23718;SDS011;43322;52.230;5.702;2024-01-30T01:50:52;20.58;;;16.55;;
23718;SDS011;43322;52.230;5.702;2024-01-30T01:53:19;21.58;;;15.75;;
23718;SDS011;43322;52.230;5.702;2024-01-30T01:55:46;22.00;;;16.33;;
23718;SDS011;43322;52.230;5.702;2024-01-30T01:58:14;26.15;;;17.02;;
23718;SDS011;43322;52.230;5.702;2024-01-30T02:00:41;23.52;;;15.90;;
23718;SDS011;43322;52.230;5.702;2024-01-30T02:03:08;22.27;;;16.42;;
23718;SDS011;43322;52.230;5.702;2024-01-30T02:05:38;25.77;;;16.58;;
23718;SDS011;43322;52.230;5.702;2024-01-30T02:08:07;22.85;;;16.70;;
23718;SDS011;43322;52.230;5.702;2024-01-30T02:10:35;20.27;;;15.65;;
23718;SDS011;43322;52.230;5.702;2024-01-30T02:13:02;22.67;;;15.98;;
23718;SDS011;43322;52.230;5.702;2024-01-30T02:15:29;20.23;;;16.42;;
23718;SDS011;43322;52.230;5.702;2024-01-30T02:17:56;19.35;;;15.45;;
23718;SDS011;43322;52.230;5.702;2024-01-30T02:20:23;23.60;;;16.08;;
23718;SDS011;43322;52.230;5.702;2024-01-30T02:22:55;21.33;;;15.75;;
23718;SDS011;43322;52.230;5.702;2024-01-30T02:25:30;19.42;;;15.50;;
23718;SDS011;43322;52.230;5.702;2024-01-30T02:27:57;19.73;;;14.93;;
23718;SDS011;43322;52.230;5.702;2024-01-30T02:30:24;22.15;;;16.42;;
23718;SDS011;43322;52.230;5.702;2024-01-30T02:32:51;21.95;;;15.40;;
23718;SDS011;43322;52.230;5.702;2024-01-30T02:35:18;20.35;;;16.45;;
23718;SDS011;43322;52.230;5.702;2024-01-30T02:37:44;22.20;;;16.02;;
23718;SDS011;43322;52.230;5.702;2024-01-30T02:40:13;21.20;;;15.40;;
23718;SDS011;43322;52.230;5.702;2024-01-30T02:42:39;20.73;;;16.48;;
23718;SDS011;43322;52.230;5.702;2024-01-30T02:45:07;19.33;;;15.38;;
23718;SDS011;43322;52.230;5.702;2024-01-30T02:47:35;18.90;;;15.35;;
23718;SDS011;43322;52.230;5.702;2024-01-30T02:50:02;20.92;;;15.93;;
23718;SDS011;43322;52.230;5.702;2024-01-30T02:52:29;21.73;;;16.13;;
23718;SDS011;43322;52.230;5.702;2024-01-30T02:54:56;24.55;;;15.82;;
23718;SDS011;43322;52.230;5.702;2024-01-30T02:57:24;20.55;;;15.90;;
23718;SDS011;43322;52.230;5.702;2024-01-30T02:59:51;27.02;;;16.83;;
23718;SDS011;43322;52.230;5.702;2024-01-30T03:02:17;24.58;;;16.85;;
23718;SDS011;43322;52.230;5.702;2024-01-30T03:04:44;19.88;;;16.95;;
23718;SDS011;43322;52.230;5.702;2024-01-30T03:07:11;26.45;;;16.75;;
23718;SDS011;43322;52.230;5.702;2024-01-30T03:09:38;21.55;;;16.63;;
23718;SDS011;43322;52.230;5.702;2024-01-30T03:12:07;24.63;;;17.67;;
23718;SDS011;43322;52.230;5.702;2024-01-30T03:14:36;23.10;;;17.83;;
23718;SDS011;43322;52.230;5.702;2024-01-30T03:17:02;21.95;;;16.27;;
23718;SDS011;43322;52.230;5.702;2024-01-30T03:19:29;21.73;;;16.48;;
23718;SDS011;43322;52.230;5.702;2024-01-30T03:21:56;25.75;;;16.65;;
23718;SDS011;43322;52.230;5.702;2024-01-30T03:24:23;21.92;;;15.82;;
23718;SDS011;43322;52.230;5.702;2024-01-30T03:26:50;20.30;;;16.00;;
23718;SDS011;43322;52.230;5.702;2024-01-30T03:29:16;21.90;;;15.80;;
23718;SDS011;43322;52.230;5.702;2024-01-30T03:31:44;19.95;;;16.23;;
23718;SDS011;43322;52.230;5.702;2024-01-30T03:34:11;19.33;;;15.68;;
23718;SDS011;43322;52.230;5.702;2024-01-30T03:36:38;20.63;;;15.65;;
23718;SDS011;43322;52.230;5.702;2024-01-30T03:39:05;19.45;;;15.82;;
23718;SDS011;43322;52.230;5.702;2024-01-30T03:41:32;18.08;;;15.25;;
23718;SDS011;43322;52.230;5.702;2024-01-30T03:43:59;20.20;;;15.02;;
23718;SDS011;43322;52.230;5.702;2024-01-30T03:46:26;22.92;;;16.27;;
23718;SDS011;43322;52.230;5.702;2024-01-30T03:48:54;20.83;;;15.45;;
23718;SDS011;43322;52.230;5.702;2024-01-30T03:51:20;22.05;;;16.35;;
23718;SDS011;43322;52.230;5.702;2024-01-30T03:53:47;23.65;;;15.13;;
23718;SDS011;43322;52.230;5.702;2024-01-30T03:56:15;17.23;;;14.10;;
23718;SDS011;43322;52.230;5.702;2024-01-30T03:58:42;17.05;;;14.15;;
23718;SDS011;43322;52.230;5.702;2024-01-30T04:01:12;20.17;;;15.18;;
23718;SDS011;43322;52.230;5.702;2024-01-30T04:03:39;17.05;;;14.25;;
23718;SDS011;43322;52.230;5.702;2024-01-30T04:06:08;26.52;;;14.52;;
23718;SDS011;43322;52.230;5.702;2024-01-30T04:08:34;19.75;;;14.73;;
23718;SDS011;43322;52.230;5.702;2024-01-30T04:11:03;19.63;;;14.65;;
23718;SDS011;43322;52.230;5.702;2024-01-30T04:13:31;22.17;;;15.18;;
23718;SDS011;43322;52.230;5.702;2024-01-30T04:15:58;17.92;;;14.32;;
23718;SDS011;43322;52.230;5.702;2024-01-30T04:18:26;16.70;;;13.95;;
23718;SDS011;43322;52.230;5.702;2024-01-30T04:20:53;22.27;;;15.38;;
23718;SDS011;43322;52.230;5.702;2024-01-30T04:23:21;17.15;;;13.70;;
23718;SDS011;43322;52.230;5.702;2024-01-30T04:25:49;21.42;;;15.15;;
23718;SDS011;43322;52.230;5.702;2024-01-30T04:28:15;21.33;;;14.93;;
23718;SDS011;43322;52.230;5.702;2024-01-30T04:30:42;20.90;;;16.05;;
23718;SDS011;43322;52.230;5.702;2024-01-30T04:33:10;17.75;;;15.18;;
23718;SDS011;43322;52.230;5.702;2024-01-30T04:35:37;26.45;;;15.45;;
23718;SDS011;43322;52.230;5.702;2024-01-30T04:38:05;20.08;;;15.20;;
23718;SDS011;43322;52.230;5.702;2024-01-30T04:40:33;16.52;;;14.57;;
23718;SDS011;43322;52.230;5.702;2024-01-30T04:43:00;20.05;;;14.88;;
23718;SDS011;43322;52.230;5.702;2024-01-30T04:45:26;19.85;;;15.45;;
23718;SDS011;43322;52.230;5.702;2024-01-30T04:47:53;20.52;;;15.18;;
23718;SDS011;43322;52.230;5.702;2024-01-30T04:50:20;17.42;;;15.18;;
23718;SDS011;43322;52.230;5.702;2024-01-30T04:52:47;17.90;;;14.27;;
23718;SDS011;43322;52.230;5.702;2024-01-30T04:55:13;19.05;;;13.77;;
23718;SDS011;43322;52.230;5.702;2024-01-30T04:57:42;16.67;;;13.55;;
23718;SDS011;43322;52.230;5.702;2024-01-30T05:00:09;20.20;;;13.85;;
23718;SDS011;43322;52.230;5.702;2024-01-30T05:02:36;15.75;;;13.15;;
23718;SDS011;43322;52.230;5.702;2024-01-30T05:05:03;15.25;;;13.60;;
23718;SDS011;43322;52.230;5.702;2024-01-30T05:07:31;14.88;;;13.38;;
23718;SDS011;43322;52.230;5.702;2024-01-30T05:09:57;18.52;;;14.05;;
23718;SDS011;43322;52.230;5.702;2024-01-30T05:12:24;18.35;;;13.32;;
23718;SDS011;43322;52.230;5.702;2024-01-30T05:14:52;17.52;;;13.13;;
23718;SDS011;43322;52.230;5.702;2024-01-30T05:17:19;19.25;;;13.52;;
23718;SDS011;43322;52.230;5.702;2024-01-30T05:19:46;17.15;;;12.70;;
23718;SDS011;43322;52.230;5.702;2024-01-30T05:22:13;15.77;;;13.82;;
23718;SDS011;43322;52.230;5.702;2024-01-30T05:24:40;16.90;;;13.43;;
23718;SDS011;43322;52.230;5.702;2024-01-30T05:27:08;17.00;;;13.73;;
23718;SDS011;43322;52.230;5.702;2024-01-30T05:29:34;17.35;;;13.20;;
23718;SDS011;43322;52.230;5.702;2024-01-30T05:32:03;14.85;;;13.00;;
23718;SDS011;43322;52.230;5.702;2024-01-30T05:34:31;16.75;;;13.80;;
23718;SDS011;43322;52.230;5.702;2024-01-30T05:36:58;15.57;;;13.07;;
23718;SDS011;43322;52.230;5.702;2024-01-30T05:39:25;16.90;;;12.98;;
23718;SDS011;43322;52.230;5.702;2024-01-30T05:41:51;17.48;;;13.40;;
23718;SDS011;43322;52.230;5.702;2024-01-30T05:44:18;18.92;;;13.70;;
23718;SDS011;43322;52.230;5.702;2024-01-30T05:46:45;19.85;;;13.32;;
23718;SDS011;43322;52.230;5.702;2024-01-30T05:49:13;18.10;;;13.43;;
23718;SDS011;43322;52.230;5.702;2024-01-30T05:51:40;17.33;;;13.82;;
23718;SDS011;43322;52.230;5.702;2024-01-30T05:54:07;15.07;;;12.30;;
23718;SDS011;43322;52.230;5.702;2024-01-30T05:56:34;18.60;;;13.20;;
23718;SDS011;43322;52.230;5.702;2024-01-30T05:59:00;17.63;;;13.10;;
23718;SDS011;43322;52.230;5.702;2024-01-30T06:01:27;15.52;;;13.43;;
23718;SDS011;43322;52.230;5.702;2024-01-30T06:03:54;19.38;;;13.63;;
23718;SDS011;43322;52.230;5.702;2024-01-30T06:06:22;17.38;;;12.65;;
23718;SDS011;43322;52.230;5.702;2024-01-30T06:08:49;18.15;;;12.70;;
23718;SDS011;43322;52.230;5.702;2024-01-30T06:11:16;21.50;;;13.60;;
23718;SDS011;43322;52.230;5.702;2024-01-30T06:13:43;15.95;;;12.65;;
23718;SDS011;43322;52.230;5.702;2024-01-30T06:16:10;21.98;;;13.13;;
23718;SDS011;43322;52.230;5.702;2024-01-30T06:18:37;17.98;;;12.95;;
23718;SDS011;43322;52.230;5.702;2024-01-30T06:21:04;17.08;;;12.48;;
23718;SDS011;43322;52.230;5.702;2024-01-30T06:23:33;15.60;;;12.65;;
23718;SDS011;43322;52.230;5.702;2024-01-30T06:25:59;15.73;;;12.65;;
23718;SDS011;43322;52.230;5.702;2024-01-30T06:28:26;19.13;;;13.35;;
23718;SDS011;43322;52.230;5.702;2024-01-30T06:30:53;17.23;;;12.35;;
23718;SDS011;43322;52.230;5.702;2024-01-30T06:33:20;16.27;;;12.88;;
23718;SDS011;43322;52.230;5.702;2024-01-30T06:35:47;16.42;;;13.07;;
23718;SDS011;43322;52.230;5.702;2024-01-30T06:38:13;17.58;;;13.38;;
23718;SDS011;43322;52.230;5.702;2024-01-30T06:40:42;18.45;;;12.60;;
23718;SDS011;43322;52.230;5.702;2024-01-30T06:43:09;19.52;;;12.95;;
23718;SDS011;43322;52.230;5.702;2024-01-30T06:45:36;17.02;;;12.52;;
23718;SDS011;43322;52.230;5.702;2024-01-30T06:48:03;16.33;;;12.93;;
23718;SDS011;43322;52.230;5.702;2024-01-30T06:50:30;15.20;;;13.15;;
23718;SDS011;43322;52.230;5.702;2024-01-30T06:52:57;16.30;;;12.80;;
23718;SDS011;43322;52.230;5.702;2024-01-30T06:55:24;16.10;;;13.15;;
23718;SDS011;43322;52.230;5.702;2024-01-30T06:57:52;15.32;;;13.02;;
23718;SDS011;43322;52.230;5.702;2024-01-30T07:00:19;14.98;;;12.88;;
23718;SDS011;43322;52.230;5.702;2024-01-30T07:02:46;17.60;;;13.10;;
23718;SDS011;43322;52.230;5.702;2024-01-30T07:05:13;14.60;;;12.88;;
23718;SDS011;43322;52.230;5.702;2024-01-30T07:07:40;15.18;;;12.77;;
23718;SDS011;43322;52.230;5.702;2024-01-30T07:10:07;15.50;;;12.43;;
23718;SDS011;43322;52.230;5.702;2024-01-30T07:12:34;16.67;;;12.48;;
23718;SDS011;43322;52.230;5.702;2024-01-30T07:15:03;14.82;;;11.95;;
23718;SDS011;43322;52.230;5.702;2024-01-30T07:17:33;21.33;;;12.40;;
23718;SDS011;43322;52.230;5.702;2024-01-30T07:19:59;14.70;;;12.65;;
23718;SDS011;43322;52.230;5.702;2024-01-30T07:22:27;13.95;;;12.43;;
23718;SDS011;43322;52.230;5.702;2024-01-30T07:24:54;13.50;;;11.52;;
23718;SDS011;43322;52.230;5.702;2024-01-30T07:27:21;16.00;;;12.18;;
23718;SDS011;43322;52.230;5.702;2024-01-30T07:29:48;14.85;;;12.27;;
23718;SDS011;43322;52.230;5.702;2024-01-30T07:32:16;12.88;;;11.52;;
23718;SDS011;43322;52.230;5.702;2024-01-30T07:34:43;13.40;;;12.00;;
23718;SDS011;43322;52.230;5.702;2024-01-30T07:37:10;16.67;;;12.25;;
23718;SDS011;43322;52.230;5.702;2024-01-30T07:39:40;16.65;;;12.20;;
23718;SDS011;43322;52.230;5.702;2024-01-30T07:42:07;14.82;;;12.10;;
23718;SDS011;43322;52.230;5.702;2024-01-30T07:44:34;15.65;;;11.48;;
23718;SDS011;43322;52.230;5.702;2024-01-30T07:47:00;14.70;;;12.35;;
23718;SDS011;43322;52.230;5.702;2024-01-30T07:49:29;15.93;;;11.68;;
23718;SDS011;43322;52.230;5.702;2024-01-30T07:51:56;16.05;;;11.63;;
23718;SDS011;43322;52.230;5.702;2024-01-30T07:54:22;14.15;;;11.63;;
23718;SDS011;43322;52.230;5.702;2024-01-30T07:56:49;16.40;;;12.65;;
23718;SDS011;43322;52.230;5.702;2024-01-30T07:59:16;18.52;;;12.73;;
23718;SDS011;43322;52.230;5.702;2024-01-30T08:01:44;13.30;;;11.10;;
23718;SDS011;43322;52.230;5.702;2024-01-30T08:04:29;16.95;;;12.40;;
23718;SDS011;43322;52.230;5.702;2024-01-30T08:06:56;15.02;;;11.60;;
23718;SDS011;43322;52.230;5.702;2024-01-30T08:09:23;16.23;;;12.20;;
23718;SDS011;43322;52.230;5.702;2024-01-30T08:11:49;15.50;;;11.88;;
23718;SDS011;43322;52.230;5.702;2024-01-30T08:14:16;14.60;;;12.13;;
23718;SDS011;43322;52.230;5.702;2024-01-30T08:16:43;16.80;;;12.35;;
23718;SDS011;43322;52.230;5.702;2024-01-30T08:19:10;20.83;;;12.45;;
23718;SDS011;43322;52.230;5.702;2024-01-30T08:21:38;14.80;;;12.45;;
23718;SDS011;43322;52.230;5.702;2024-01-30T08:24:05;19.50;;;13.07;;
23718;SDS011;43322;52.230;5.702;2024-01-30T08:26:33;16.77;;;12.68;;
23718;SDS011;43322;52.230;5.702;2024-01-30T08:29:00;13.35;;;11.80;;
23718;SDS011;43322;52.230;5.702;2024-01-30T08:31:27;16.98;;;11.85;;
23718;SDS011;43322;52.230;5.702;2024-01-30T08:33:54;18.27;;;11.98;;
23718;SDS011;43322;52.230;5.702;2024-01-30T08:36:21;15.20;;;11.27;;
23718;SDS011;43322;52.230;5.702;2024-01-30T08:38:49;16.58;;;11.82;;
23718;SDS011;43322;52.230;5.702;2024-01-30T08:41:16;15.30;;;11.55;;
23718;SDS011;43322;52.230;5.702;2024-01-30T08:43:43;18.98;;;11.85;;
23718;SDS011;43322;52.230;5.702;2024-01-30T08:46:10;15.32;;;11.50;;
23718;SDS011;43322;52.230;5.702;2024-01-30T08:48:38;20.35;;;12.27;;
23718;SDS011;43322;52.230;5.702;2024-01-30T08:51:05;15.38;;;12.13;;
23718;SDS011;43322;52.230;5.702;2024-01-30T08:53:33;17.35;;;11.82;;
23718;SDS011;43322;52.230;5.702;2024-01-30T08:56:02;19.67;;;11.43;;
23718;SDS011;43322;52.230;5.702;2024-01-30T08:58:29;16.80;;;11.65;;
23718;SDS011;43322;52.230;5.702;2024-01-30T09:00:56;16.65;;;11.73;;
23718;SDS011;43322;52.230;5.702;2024-01-30T09:03:23;16.20;;;11.27;;
23718;SDS011;43322;52.230;5.702;2024-01-30T09:05:50;15.88;;;11.80;;
23718;SDS011;43322;52.230;5.702;2024-01-30T09:08:17;19.55;;;12.52;;
23718;SDS011;43322;52.230;5.702;2024-01-30T09:10:43;21.40;;;12.38;;
23718;SDS011;43322;52.230;5.702;2024-01-30T09:13:11;13.15;;;11.70;;
23718;SDS011;43322;52.230;5.702;2024-01-30T09:15:38;18.83;;;12.85;;
23718;SDS011;43322;52.230;5.702;2024-01-30T09:18:05;21.60;;;12.15;;
23718;SDS011;43322;52.230;5.702;2024-01-30T09:20:32;21.58;;;12.25;;
23718;SDS011;43322;52.230;5.702;2024-01-30T09:22:59;20.73;;;12.27;;
23718;SDS011;43322;52.230;5.702;2024-01-30T09:25:26;21.52;;;11.98;;
23718;SDS011;43322;52.230;5.702;2024-01-30T09:27:53;21.50;;;12.88;;
23718;SDS011;43322;52.230;5.702;2024-01-30T09:30:21;21.08;;;12.95;;
23718;SDS011;43322;52.230;5.702;2024-01-30T09:32:48;15.02;;;12.52;;
23718;SDS011;43322;52.230;5.702;2024-01-30T09:35:14;19.42;;;12.95;;
23718;SDS011;43322;52.230;5.702;2024-01-30T09:37:41;24.30;;;12.20;;
23718;SDS011;43322;52.230;5.702;2024-01-30T09:40:08;18.60;;;12.35;;
23718;SDS011;43322;52.230;5.702;2024-01-30T09:42:35;20.08;;;12.18;;
23718;SDS011;43322;52.230;5.702;2024-01-30T09:45:03;20.95;;;12.45;;
23718;SDS011;43322;52.230;5.702;2024-01-30T09:47:32;15.38;;;11.85;;
23718;SDS011;43322;52.230;5.702;2024-01-30T09:50:06;16.08;;;11.40;;
23718;SDS011;43322;52.230;5.702;2024-01-30T09:52:33;18.55;;;11.93;;
23718;SDS011;43322;52.230;5.702;2024-01-30T09:55:00;16.75;;;12.02;;
23718;SDS011;43322;52.230;5.702;2024-01-30T09:57:27;22.42;;;12.63;;
23718;SDS011;43322;52.230;5.702;2024-01-30T09:59:54;15.52;;;11.45;;
23718;SDS011;43322;52.230;5.702;2024-01-30T10:02:22;18.55;;;11.75;;
23718;SDS011;43322;52.230;5.702;2024-01-30T10:04:50;16.77;;;11.55;;
23718;SDS011;43322;52.230;5.702;2024-01-30T10:07:18;15.07;;;12.38;;
23718;SDS011;43322;52.230;5.702;2024-01-30T10:09:45;19.27;;;12.45;;
23718;SDS011;43322;52.230;5.702;2024-01-30T10:12:12;17.33;;;12.18;;
23718;SDS011;43322;52.230;5.702;2024-01-30T10:14:39;15.57;;;11.98;;
23718;SDS011;43322;52.230;5.702;2024-01-30T10:17:07;20.83;;;12.70;;
23718;SDS011;43322;52.230;5.702;2024-01-30T10:19:35;14.50;;;11.90;;
23718;SDS011;43322;52.230;5.702;2024-01-30T10:22:03;16.63;;;11.57;;
23718;SDS011;43322;52.230;5.702;2024-01-30T10:24:30;16.02;;;12.55;;
23718;SDS011;43322;52.230;5.702;2024-01-30T10:26:57;18.08;;;12.57;;
23718;SDS011;43322;52.230;5.702;2024-01-30T10:29:24;16.80;;;12.43;;
23718;SDS011;43322;52.230;5.702;2024-01-30T10:31:58;21.52;;;11.88;;
23718;SDS011;43322;52.230;5.702;2024-01-30T10:34:25;18.20;;;11.18;;
23718;SDS011;43322;52.230;5.702;2024-01-30T10:36:56;14.98;;;10.75;;
23718;SDS011;43322;52.230;5.702;2024-01-30T10:39:28;16.33;;;11.35;;
23718;SDS011;43322;52.230;5.702;2024-01-30T10:41:56;18.25;;;10.88;;
23718;SDS011;43322;52.230;5.702;2024-01-30T10:44:29;16.17;;;9.95;;
23718;SDS011;43322;52.230;5.702;2024-01-30T10:47:00;14.13;;;10.15;;
23718;SDS011;43322;52.230;5.702;2024-01-30T10:49:33;15.15;;;9.48;;
23718;SDS011;43322;52.230;5.702;2024-01-30T10:52:00;14.80;;;8.95;;
23718;SDS011;43322;52.230;5.702;2024-01-30T10:54:28;13.00;;;9.77;;
23718;SDS011;43322;52.230;5.702;2024-01-30T10:56:56;14.40;;;9.68;;
23718;SDS011;43322;52.230;5.702;2024-01-30T10:59:26;15.00;;;9.27;;
23718;SDS011;43322;52.230;5.702;2024-01-30T11:01:56;13.98;;;9.38;;
23718;SDS011;43322;52.230;5.702;2024-01-30T11:04:23;13.52;;;9.45;;
23718;SDS011;43322;52.230;5.702;2024-01-30T11:06:50;15.70;;;9.07;;
23718;SDS011;43322;52.230;5.702;2024-01-30T11:09:17;16.70;;;9.88;;
23718;SDS011;43322;52.230;5.702;2024-01-30T11:11:50;15.07;;;9.60;;
23718;SDS011;43322;52.230;5.702;2024-01-30T11:14:22;13.65;;;9.45;;
23718;SDS011;43322;52.230;5.702;2024-01-30T11:16:50;13.40;;;9.20;;
23718;SDS011;43322;52.230;5.702;2024-01-30T11:19:22;13.45;;;9.27;;
23718;SDS011;43322;52.230;5.702;2024-01-30T11:21:50;11.68;;;8.25;;
23718;SDS011;43322;52.230;5.702;2024-01-30T11:24:19;12.38;;;8.80;;
23718;SDS011;43322;52.230;5.702;2024-01-30T11:26:46;10.55;;;7.60;;
23718;SDS011;43322;52.230;5.702;2024-01-30T11:29:15;10.68;;;8.05;;
23718;SDS011;43322;52.230;5.702;2024-01-30T11:31:51;13.90;;;7.85;;
23718;SDS011;43322;52.230;5.702;2024-01-30T11:34:18;10.30;;;7.50;;
23718;SDS011;43322;52.230;5.702;2024-01-30T11:36:46;10.80;;;6.63;;
23718;SDS011;43322;52.230;5.702;2024-01-30T11:39:20;10.43;;;7.30;;
23718;SDS011;43322;52.230;5.702;2024-01-30T11:41:47;11.23;;;7.30;;
23718;SDS011;43322;52.230;5.702;2024-01-30T11:44:18;11.77;;;7.10;;
23718;SDS011;43322;52.230;5.702;2024-01-30T11:46:46;12.10;;;7.88;;
23718;SDS011;43322;52.230;5.702;2024-01-30T11:49:13;12.57;;;7.20;;
23718;SDS011;43322;52.230;5.702;2024-01-30T11:51:40;8.05;;;6.70;;
23718;SDS011;43322;52.230;5.702;2024-01-30T11:54:07;11.68;;;7.22;;
23718;SDS011;43322;52.230;5.702;2024-01-30T11:56:34;9.13;;;6.43;;
23718;SDS011;43322;52.230;5.702;2024-01-30T11:59:02;5.90;;;4.95;;
23718;SDS011;43322;52.230;5.702;2024-01-30T12:01:30;8.98;;;4.78;;
23718;SDS011;43322;52.230;5.702;2024-01-30T12:03:58;4.63;;;4.10;;
23718;SDS011;43322;52.230;5.702;2024-01-30T12:06:25;7.95;;;4.05;;
23718;SDS011;43322;52.230;5.702;2024-01-30T12:08:58;8.93;;;3.78;;
23718;SDS011;43322;52.230;5.702;2024-01-30T12:11:26;6.38;;;3.38;;
23718;SDS011;43322;52.230;5.702;2024-01-30T12:13:55;9.07;;;3.65;;
23718;SDS011;43322;52.230;5.702;2024-01-30T12:16:22;4.18;;;3.00;;
23718;SDS011;43322;52.230;5.702;2024-01-30T12:18:58;5.47;;;3.40;;
23718;SDS011;43322;52.230;5.702;2024-01-30T12:21:26;5.70;;;3.03;;
23718;SDS011;43322;52.230;5.702;2024-01-30T12:23:53;6.90;;;3.35;;
23718;SDS011;43322;52.230;5.702;2024-01-30T12:26:20;7.60;;;3.10;;
23718;SDS011;43322;52.230;5.702;2024-01-30T12:28:47;3.15;;;2.42;;
23718;SDS011;43322;52.230;5.702;2024-01-30T12:31:15;2.47;;;2.00;;
23718;SDS011;43322;52.230;5.702;2024-01-30T12:33:42;7.45;;;2.15;;
23718;SDS011;43322;52.230;5.702;2024-01-30T12:36:10;3.17;;;1.98;;
23718;SDS011;43322;52.230;5.702;2024-01-30T12:38:37;5.78;;;2.20;;
23718;SDS011;43322;52.230;5.702;2024-01-30T12:41:06;5.78;;;2.33;;
23718;SDS011;43322;52.230;5.702;2024-01-30T12:43:33;2.65;;;1.90;;
23718;SDS011;43322;52.230;5.702;2024-01-30T12:46:00;2.15;;;1.95;;
23718;SDS011;43322;52.230;5.702;2024-01-30T12:48:28;6.25;;;1.95;;
23718;SDS011;43322;52.230;5.702;2024-01-30T12:50:55;5.13;;;2.10;;
23718;SDS011;43322;52.230;5.702;2024-01-30T12:53:24;4.05;;;2.63;;
23718;SDS011;43322;52.230;5.702;2024-01-30T12:55:51;5.93;;;2.88;;
23718;SDS011;43322;52.230;5.702;2024-01-30T12:58:19;6.10;;;3.58;;
23718;SDS011;43322;52.230;5.702;2024-01-30T13:00:46;9.27;;;3.45;;
23718;SDS011;43322;52.230;5.702;2024-01-30T13:03:13;5.85;;;3.30;;
23718;SDS011;43322;52.230;5.702;2024-01-30T13:05:40;5.63;;;3.20;;
23718;SDS011;43322;52.230;5.702;2024-01-30T13:08:06;4.90;;;2.85;;
23718;SDS011;43322;52.230;5.702;2024-01-30T13:10:35;6.68;;;2.88;;
23718;SDS011;43322;52.230;5.702;2024-01-30T13:13:02;3.35;;;3.05;;
23718;SDS011;43322;52.230;5.702;2024-01-30T13:15:29;4.93;;;2.83;;
23718;SDS011;43322;52.230;5.702;2024-01-30T13:17:55;4.72;;;3.10;;
23718;SDS011;43322;52.230;5.702;2024-01-30T13:20:22;6.30;;;3.50;;
23718;SDS011;43322;52.230;5.702;2024-01-30T13:22:49;12.20;;;3.22;;
23718;SDS011;43322;52.230;5.702;2024-01-30T13:25:16;40.13;;;4.93;;
23718;SDS011;43322;52.230;5.702;2024-01-30T13:27:44;16.85;;;4.68;;
23718;SDS011;43322;52.230;5.702;2024-01-30T13:30:11;4.93;;;3.10;;
23718;SDS011;43322;52.230;5.702;2024-01-30T13:32:39;7.40;;;3.05;;
23718;SDS011;43322;52.230;5.702;2024-01-30T13:35:09;5.00;;;2.88;;
23718;SDS011;43322;52.230;5.702;2024-01-30T13:37:36;3.45;;;2.50;;
23718;SDS011;43322;52.230;5.702;2024-01-30T13:40:03;3.08;;;2.15;;
23718;SDS011;43322;52.230;5.702;2024-01-30T13:42:33;3.30;;;2.50;;
23718;SDS011;43322;52.230;5.702;2024-01-30T13:45:02;4.38;;;2.65;;
23718;SDS011;43322;52.230;5.702;2024-01-30T13:47:29;2.78;;;2.25;;
23718;SDS011;43322;52.230;5.702;2024-01-30T13:49:56;3.28;;;2.97;;
23718;SDS011;43322;52.230;5.702;2024-01-30T13:52:22;3.58;;;2.33;;
23718;SDS011;43322;52.230;5.702;2024-01-30T13:54:49;6.00;;;2.38;;
23718;SDS011;43322;52.230;5.702;2024-01-30T13:57:16;3.85;;;2.03;;
23718;SDS011;43322;52.230;5.702;2024-01-30T13:59:43;3.88;;;1.90;;
23718;SDS011;43322;52.230;5.702;2024-01-30T14:02:11;6.07;;;2.08;;
23718;SDS011;43322;52.230;5.702;2024-01-30T14:04:38;4.32;;;1.90;;
23718;SDS011;43322;52.230;5.702;2024-01-30T14:07:05;2.10;;;1.90;;
23718;SDS011;43322;52.230;5.702;2024-01-30T14:09:32;5.65;;;2.35;;
23718;SDS011;43322;52.230;5.702;2024-01-30T14:11:59;3.13;;;1.70;;
23718;SDS011;43322;52.230;5.702;2024-01-30T14:14:26;2.72;;;1.90;;
23718;SDS011;43322;52.230;5.702;2024-01-30T14:16:52;6.00;;;2.10;;
23718;SDS011;43322;52.230;5.702;2024-01-30T14:19:21;4.05;;;2.30;;
23718;SDS011;43322;52.230;5.702;2024-01-30T14:21:48;2.72;;;2.38;;
23718;SDS011;43322;52.230;5.702;2024-01-30T14:24:15;7.13;;;2.22;;
23718;SDS011;43322;52.230;5.702;2024-01-30T14:26:41;2.78;;;2.53;;